Time;durP1;ratioP1;P1;durP2;ratioP2;P2;SDS_P1;SDS_P2;PMS_P1;PMS_P2;Temp;Humidity;BMP_temperature;BMP_pressure;BME280_temperature;BME280_humidity;BME280_pressure;Samples;Min_cycle;Max_cycle;Signal;HPM_P1;HPM_P2
2022/12/17 13:08:07;;;;;;;34.60;16.33;;;-3.20;99.90;;;;;;7375358;32;20701;-61
2022/12/17 13:12:18;;;;;;;28.75;16.17;;;-3.30;99.90;;;;;;7376119;32;20873;-60
2022/12/17 13:16:31;;;;;;;37.13;16.30;;;-3.30;99.90;;;;;;7374533;32;20191;-61
2022/12/17 13:20:34;;;;;;;31.92;17.17;;;-3.30;99.90;;;;;;7374352;32;20149;-60
2022/12/17 13:24:35;;;;;;;29.30;15.80;;;-3.30;99.90;;;;;;7375513;32;20223;-62
2022/12/17 13:28:38;;;;;;;35.42;16.60;;;-3.30;99.90;;;;;;7368164;32;20644;-63
2022/12/17 13:33:04;;;;;;;32.28;16.77;;;-3.30;99.90;;;;;;7374372;32;20439;-61
2022/12/17 13:37:11;;;;;;;31.35;16.17;;;-3.20;99.90;;;;;;7368132;32;20245;-61
2022/12/17 13:41:17;;;;;;;32.03;14.43;;;-3.00;99.90;;;;;;7376753;32;20217;-62
2022/12/17 13:45:23;;;;;;;30.67;16.00;;;-2.90;99.90;;;;;;7375085;32;20141;-60
2022/12/17 13:49:26;;;;;;;28.00;15.48;;;-3.00;99.90;;;;;;7369618;32;20136;-60
2022/12/17 13:53:32;;;;;;;30.90;16.27;;;-3.00;99.90;;;;;;7378415;32;20682;-60
2022/12/17 13:57:36;;;;;;;29.55;16.05;;;-3.10;99.90;;;;;;7371976;32;20114;-60
2022/12/17 14:01:45;;;;;;;29.20;15.32;;;-3.10;99.90;;;;;;7367251;32;20118;-60
2022/12/17 14:05:48;;;;;;;30.45;15.80;;;-3.10;99.90;;;;;;7370115;32;20236;-60
2022/12/17 14:09:50;;;;;;;28.30;15.05;;;-3.00;99.90;;;;;;7370277;32;20537;-60
2022/12/17 14:13:52;;;;;;;29.90;15.48;;;-2.90;99.90;;;;;;7372531;32;20141;-60
2022/12/17 14:17:55;;;;;;;33.42;16.48;;;-2.80;99.90;;;;;;7380165;32;20144;-60
2022/12/17 14:21:58;;;;;;;31.37;16.12;;;-2.90;99.90;;;;;;7371213;32;20141;-61
2022/12/17 14:26:00;;;;;;;33.30;16.48;;;-3.00;99.90;;;;;;7372765;32;20107;-61
2022/12/17 14:30:21;;;;;;;33.75;15.75;;;-3.00;99.90;;;;;;7382562;32;20118;-60
2022/12/17 14:34:23;;;;;;;36.45;17.25;;;-2.90;99.90;;;;;;7382292;32;20163;-59
2022/12/17 14:38:26;;;;;;;30.88;16.35;;;-3.00;99.90;;;;;;7372127;32;20189;-60
2022/12/17 14:42:39;;;;;;;30.88;16.25;;;-3.00;99.90;;;;;;7369976;32;20220;-60
2022/12/17 14:46:41;;;;;;;37.90;17.23;;;-3.20;99.90;;;;;;7370562;32;20103;-60
2022/12/17 14:50:54;;;;;;;32.42;17.05;;;-3.20;99.90;;;;;;7374973;32;20107;-60
2022/12/17 14:54:56;;;;;;;37.50;18.33;;;-3.20;99.90;;;;;;7371053;32;20614;-60
2022/12/17 14:58:58;;;;;;;31.95;16.60;;;-3.40;99.90;;;;;;7376652;32;20106;-61
2022/12/17 15:02:59;;;;;;;37.67;18.05;;;-3.40;99.90;;;;;;7373566;32;20145;-60
2022/12/17 15:07:02;;;;;;;35.25;18.23;;;-3.50;99.90;;;;;;7376079;32;20133;-60
2022/12/17 15:11:04;;;;;;;33.25;17.40;;;-3.50;99.90;;;;;;7364793;32;20125;-61
2022/12/17 15:15:06;;;;;;;34.47;18.20;;;-3.70;99.90;;;;;;7371722;32;20515;-61
2022/12/17 15:19:08;;;;;;;38.10;18.83;;;-3.70;99.90;;;;;;7374673;32;20133;-62
2022/12/17 15:23:15;;;;;;;39.55;19.75;;;-3.80;99.90;;;;;;7374574;32;20256;-61
2022/12/17 15:27:17;;;;;;;33.00;17.42;;;-3.80;99.90;;;;;;7375331;32;20128;-62
2022/12/17 15:31:19;;;;;;;32.88;16.80;;;-4.00;99.90;;;;;;7371766;32;20129;-62
2022/12/17 15:35:26;;;;;;;32.05;17.40;;;-4.10;99.90;;;;;;7360762;32;20286;-61
2022/12/17 15:39:28;;;;;;;36.00;18.37;;;-4.20;99.90;;;;;;7377137;32;20130;-62
2022/12/17 15:43:29;;;;;;;33.08;16.92;;;-4.30;99.90;;;;;;7379604;32;20114;-61
2022/12/17 15:47:31;;;;;;;37.67;18.77;;;-4.40;99.90;;;;;;7381802;32;20115;-61
2022/12/17 15:51:33;;;;;;;33.08;16.98;;;-4.50;99.90;;;;;;7380976;32;20149;-61
2022/12/17 15:55:35;;;;;;;30.77;17.40;;;-4.60;99.90;;;;;;7373954;32;20122;-61
2022/12/17 15:59:37;;;;;;;34.80;17.80;;;-4.70;99.90;;;;;;7386335;32;20297;-61
2022/12/17 16:03:39;;;;;;;37.50;17.75;;;-4.70;99.90;;;;;;7368983;32;20469;-60
2022/12/17 16:07:42;;;;;;;39.20;18.65;;;-4.80;99.90;;;;;;7378647;32;20202;-60
2022/12/17 16:11:43;;;;;;;37.35;19.40;;;-4.90;99.90;;;;;;7380761;32;20127;-60
2022/12/17 16:15:58;;;;;;;40.70;19.35;;;-5.00;99.90;;;;;;7379558;32;20166;-63
2022/12/17 16:20:05;;;;;;;34.85;18.42;;;-5.10;99.90;;;;;;7384592;32;20135;-61
2022/12/17 16:24:09;;;;;;;37.08;18.58;;;-5.10;99.90;;;;;;7381014;32;20129;-60
2022/12/17 16:28:11;;;;;;;35.47;17.67;;;-5.20;99.90;;;;;;7382013;32;20561;-60
2022/12/17 16:32:13;;;;;;;37.95;19.62;;;-5.40;99.90;;;;;;7376814;32;20137;-61
2022/12/17 16:36:17;;;;;;;40.75;19.58;;;-5.40;99.90;;;;;;7381024;32;20115;-60
2022/12/17 16:40:19;;;;;;;32.63;17.62;;;-5.50;99.90;;;;;;7380614;32;20115;-60
2022/12/17 16:44:21;;;;;;;33.90;18.75;;;-5.60;99.90;;;;;;7383286;32;20110;-60
2022/12/17 16:48:23;;;;;;;35.38;17.00;;;-5.70;99.90;;;;;;7382263;32;20221;-60
2022/12/17 16:52:24;;;;;;;32.72;17.10;;;-5.70;99.90;;;;;;7378304;32;20107;-60
2022/12/17 16:56:27;;;;;;;32.78;16.37;;;-5.70;99.90;;;;;;7372566;32;20224;-61
2022/12/17 17:00:29;;;;;;;36.70;17.85;;;-5.90;99.90;;;;;;7377197;32;20208;-59
2022/12/17 17:04:30;;;;;;;32.85;17.35;;;-5.80;99.90;;;;;;7375514;32;20123;-60
2022/12/17 17:08:34;;;;;;;31.05;15.77;;;-5.80;99.90;;;;;;7377717;32;20139;-60
2022/12/17 17:12:37;;;;;;;34.60;16.77;;;-6.00;99.90;;;;;;7375967;32;20684;-59
2022/12/17 17:16:38;;;;;;;35.30;16.98;;;-6.10;99.90;;;;;;7373637;32;20099;-60
2022/12/17 17:20:40;;;;;;;32.80;17.35;;;-6.10;99.90;;;;;;7373997;32;20125;-61
2022/12/17 17:24:42;;;;;;;31.52;15.13;;;-6.10;99.90;;;;;;7377312;32;20115;-60
2022/12/17 17:28:44;;;;;;;28.73;15.07;;;-6.20;99.90;;;;;;7376151;32;20111;-61
2022/12/17 17:32:46;;;;;;;35.20;17.65;;;-6.20;99.90;;;;;;7376988;32;20193;-61
2022/12/17 17:36:48;;;;;;;34.03;16.02;;;-6.20;99.90;;;;;;7377064;32;20137;-60
2022/12/17 17:40:56;;;;;;;30.00;16.65;;;-6.20;99.90;;;;;;7373598;32;20095;-60
2022/12/17 17:44:57;;;;;;;53.95;24.90;;;-6.30;99.90;;;;;;7369959;32;20141;-61
2022/12/17 17:49:00;;;;;;;28.58;14.50;;;-6.30;99.90;;;;;;7375006;32;20115;-60
2022/12/17 17:53:02;;;;;;;30.55;15.15;;;-6.30;99.90;;;;;;7370697;32;20131;-60
2022/12/17 17:57:04;;;;;;;35.70;15.70;;;-6.40;99.90;;;;;;7378483;32;20103;-60
2022/12/17 18:01:11;;;;;;;28.73;14.43;;;-6.40;99.90;;;;;;7373635;32;20103;-61
2022/12/17 18:05:13;;;;;;;32.13;15.43;;;-6.20;99.90;;;;;;7375052;32;20705;-60
2022/12/17 18:09:15;;;;;;;29.75;14.63;;;-6.50;99.90;;;;;;7374611;32;20110;-60
2022/12/17 18:17:37;;;;;;;31.87;15.57;;;-6.60;99.90;;;;;;7367844;32;20257;-60
2022/12/17 18:21:39;;;;;;;32.67;15.52;;;-6.60;99.90;;;;;;7375124;32;20604;-60
2022/12/17 18:25:40;;;;;;;31.20;15.18;;;-6.70;99.90;;;;;;7376798;32;20129;-60
2022/12/17 18:29:42;;;;;;;35.22;18.20;;;-6.60;99.90;;;;;;7371646;32;20289;-59
2022/12/17 18:33:48;;;;;;;31.87;16.45;;;-6.60;99.90;;;;;;7370693;32;20233;-60
2022/12/17 18:37:50;;;;;;;32.42;15.93;;;-6.60;99.90;;;;;;7365479;32;20110;-59
2022/12/17 18:46:12;;;;;;;32.92;15.85;;;-6.70;99.90;;;;;;7376379;32;20134;-60
2022/12/17 18:50:13;;;;;;;30.25;15.10;;;-6.80;99.90;;;;;;7364132;32;20444;-60
2022/12/17 18:54:18;;;;;;;30.83;17.17;;;-6.70;99.90;;;;;;7364639;32;20709;-59
2022/12/17 18:58:20;;;;;;;32.58;18.25;;;-6.80;99.90;;;;;;7369334;32;20224;-60
2022/12/17 19:02:21;;;;;;;34.33;21.45;;;-6.80;99.90;;;;;;7366632;32;20243;-60
2022/12/17 19:06:23;;;;;;;40.83;23.12;;;-6.80;99.90;;;;;;7371435;32;20123;-60
2022/12/17 19:10:25;;;;;;;33.88;18.02;;;-6.90;99.90;;;;;;7369981;32;20252;-60
2022/12/17 19:14:27;;;;;;;34.30;17.92;;;-6.90;99.90;;;;;;7375964;32;20227;-60
2022/12/17 19:18:28;;;;;;;32.80;18.37;;;-6.90;99.90;;;;;;7372280;32;20185;-60
2022/12/17 19:22:30;;;;;;;37.38;19.77;;;-6.90;99.90;;;;;;7374200;32;20137;-60
2022/12/17 19:26:34;;;;;;;32.92;18.05;;;-6.90;99.90;;;;;;7371927;32;20103;-60
2022/12/17 19:30:36;;;;;;;32.10;16.87;;;-6.90;99.90;;;;;;7370545;32;20110;-60
2022/12/17 19:34:38;;;;;;;30.35;16.20;;;-6.90;99.90;;;;;;7373028;32;20115;-59
2022/12/17 19:38:39;;;;;;;30.95;17.10;;;-7.00;99.90;;;;;;7366561;32;20095;-59
2022/12/17 19:42:42;;;;;;;30.60;15.70;;;-7.00;99.90;;;;;;7373560;32;20258;-60
2022/12/17 19:46:43;;;;;;;30.33;16.67;;;-6.90;99.90;;;;;;7370548;32;20494;-59
2022/12/17 19:50:54;;;;;;;34.22;16.20;;;-6.90;99.90;;;;;;7372492;32;20102;-59
2022/12/17 19:54:56;;;;;;;31.00;16.35;;;-6.90;99.90;;;;;;7372438;32;20111;-59
2022/12/17 19:59:00;;;;;;;29.65;16.45;;;-7.00;99.90;;;;;;7368551;32;20131;-59
2022/12/17 20:03:02;;;;;;;30.95;15.27;;;-7.00;99.90;;;;;;7371265;32;20165;-59
2022/12/17 20:07:04;;;;;;;31.37;16.02;;;-7.00;99.90;;;;;;7372036;32;20123;-59
2022/12/17 20:11:31;;;;;;;24.20;13.32;;;-7.00;99.90;;;;;;7372118;32;20107;-60
2022/12/17 20:15:30;;;;;;;26.02;13.32;;;-7.00;99.90;;;;;;7372940;32;20191;-60
2022/12/17 20:19:33;;;;;;;25.75;13.50;;;-6.90;99.90;;;;;;7373422;32;20111;-60
2022/12/17 20:23:35;;;;;;;25.65;13.45;;;-6.90;99.90;;;;;;7370111;32;20221;-60
2022/12/17 20:27:37;;;;;;;26.30;13.82;;;-6.90;99.90;;;;;;7378149;32;20257;-59
2022/12/17 20:31:41;;;;;;;31.25;14.57;;;-6.90;99.90;;;;;;7371886;32;20133;-59
2022/12/17 20:35:50;;;;;;;32.60;14.90;;;-6.80;99.90;;;;;;7378467;32;20196;-60
2022/12/17 20:39:51;;;;;;;24.27;12.60;;;-6.80;99.90;;;;;;7376354;32;22564;-60
2022/12/17 20:43:54;;;;;;;26.10;13.70;;;-6.70;99.90;;;;;;7379195;32;20557;-59
2022/12/17 20:47:56;;;;;;;37.67;19.08;;;-6.70;99.90;;;;;;7378334;32;20327;-59
2022/12/17 20:51:57;;;;;;;28.17;13.85;;;-6.60;99.90;;;;;;7372628;32;20227;-59
2022/12/17 20:56:14;;;;;;;24.60;12.02;;;-6.70;99.90;;;;;;7368726;32;20098;-59
2022/12/17 21:00:17;;;;;;;24.23;12.55;;;-6.70;99.90;;;;;;7370769;32;20158;-60
2022/12/17 21:04:19;;;;;;;24.23;12.57;;;-6.70;99.90;;;;;;7372465;32;20122;-60
2022/12/17 21:08:21;;;;;;;26.80;12.13;;;-6.70;99.90;;;;;;7377148;32;20534;-59
2022/12/17 21:13:27;;;;;;;22.90;11.00;;;-6.70;99.90;;;;;;7380957;32;20178;-59
2022/12/17 21:16:44;;;;;;;23.95;11.25;;;-6.60;99.90;;;;;;7374575;32;20115;-59
2022/12/17 21:21:15;;;;;;;25.92;12.23;;;-6.60;99.90;;;;;;7377337;32;20757;-58
2022/12/17 21:25:17;;;;;;;22.17;12.65;;;-6.40;99.90;;;;;;7383244;32;20224;-59
2022/12/17 21:29:19;;;;;;;19.60;10.63;;;-6.20;99.90;;;;;;7376120;32;20130;-59
2022/12/17 21:33:21;;;;;;;17.33;9.65;;;-6.20;99.90;;;;;;7378853;32;20129;-60
2022/12/17 21:37:22;;;;;;;21.80;10.70;;;-6.10;99.90;;;;;;7373434;32;20118;-60
2022/12/17 21:41:27;;;;;;;17.70;8.73;;;-6.10;99.90;;;;;;7370823;32;20150;-60
2022/12/17 21:45:38;;;;;;;16.95;8.80;;;-5.60;99.90;;;;;;7374040;32;20479;-59
2022/12/17 21:49:40;;;;;;;21.40;9.32;;;-5.50;99.90;;;;;;7376639;32;20115;-59
2022/12/17 21:53:42;;;;;;;19.92;8.40;;;-5.20;99.90;;;;;;7370468;32;20129;-60
2022/12/17 21:57:44;;;;;;;16.90;8.18;;;-4.90;99.90;;;;;;7376450;32;20163;-59
2022/12/17 22:01:45;;;;;;;11.93;6.55;;;-4.60;99.90;;;;;;7375542;32;20130;-60
2022/12/17 22:05:47;;;;;;;11.90;6.62;;;-4.30;99.90;;;;;;7376013;32;20659;-60
2022/12/17 22:09:49;;;;;;;12.60;5.95;;;-4.20;99.90;;;;;;7374562;32;20598;-60
2022/12/17 22:14:11;;;;;;;9.05;5.00;;;-4.00;99.90;;;;;;7375842;32;20498;-60
2022/12/17 22:18:21;;;;;;;12.55;5.37;;;-3.70;99.90;;;;;;7379133;32;20191;-59
2022/12/17 22:22:23;;;;;;;10.23;5.80;;;-3.60;99.90;;;;;;7375150;32;20099;-59
2022/12/17 22:26:24;;;;;;;10.18;5.15;;;-3.40;99.90;;;;;;7368331;32;20533;-59
2022/12/17 22:34:47;;;;;;;10.50;5.28;;;-3.20;99.90;;;;;;7372952;32;20224;-59
2022/12/17 22:39:12;;;;;;;10.48;5.05;;;-3.20;99.90;;;;;;7375191;32;20115;-60
2022/12/17 22:43:34;;;;;;;9.32;4.47;;;-3.20;99.90;;;;;;7377236;32;20149;-59
2022/12/17 22:47:56;;;;;;;10.82;5.22;;;-3.30;99.90;;;;;;7364510;32;20103;-60
2022/12/17 22:51:57;;;;;;;11.60;5.12;;;-3.30;99.90;;;;;;7367015;32;20130;-61
2022/12/17 22:56:03;;;;;;;12.32;5.20;;;-3.30;99.90;;;;;;7367310;32;20143;-62
2022/12/17 23:00:20;;;;;;;;;;;-3.20;99.90;;;;;;7369387;32;20103;-60
2022/12/17 23:04:22;;;;;;;12.00;5.60;;;-3.10;99.90;;;;;;7367214;32;20017;-61
2022/12/17 23:08:23;;;;;;;10.20;5.18;;;-3.10;99.90;;;;;;7368426;32;20191;-60
2022/12/17 23:16:46;;;;;;;8.82;4.87;;;-3.10;99.90;;;;;;7380298;32;20508;-60
2022/12/17 23:20:47;;;;;;;10.27;4.50;;;-3.10;99.90;;;;;;7376725;32;20696;-62
2022/12/17 23:24:49;;;;;;;8.68;4.45;;;-3.10;99.90;;;;;;7378292;32;20659;-59
2022/12/17 23:29:00;;;;;;;10.23;4.82;;;-3.20;99.90;;;;;;7373298;32;20132;-61
2022/12/17 23:33:02;;;;;;;11.23;5.55;;;-3.20;99.90;;;;;;7376799;32;20106;-59
2022/12/17 23:37:04;;;;;;;10.75;6.07;;;-3.30;99.90;;;;;;7381012;32;20146;-59
2022/12/17 23:41:08;;;;;;;10.02;5.15;;;-3.20;99.90;;;;;;7366670;32;20127;-59
2022/12/17 23:45:10;;;;;;;11.68;5.65;;;-3.20;99.90;;;;;;7369722;32;20132;-59
2022/12/17 23:49:15;;;;;;;11.15;5.22;;;-3.10;99.90;;;;;;7367817;32;20149;-59
2022/12/17 23:53:17;;;;;;;9.80;4.35;;;-3.00;99.90;;;;;;7372002;32;20103;-59
2022/12/17 23:57:19;;;;;;;8.70;4.85;;;-3.00;99.90;;;;;;7373828;32;20107;-59
